Time;durP1;ratioP1;P1;durP2;ratioP2;P2;SDS_P1;SDS_P2;PMS_P1;PMS_P2;Temp;Humidity;BMP_temperature;BMP_pressure;BME280_temperature;BME280_humidity;BME280_pressure;Samples;Min_cycle;Max_cycle;Signal;HPM_P1;HPM_P2
2021/10/03 00:00:26;;;;;;;3.23;2.80;;;23.50;53.10;;;;;;4910860;29;20453;-80
2021/10/03 00:02:55;;;;;;;4.50;3.07;;;23.50;53.20;;;;;;4910874;29;20435;-81
2021/10/03 00:05:25;;;;;;;3.30;3.00;;;23.40;53.30;;;;;;4910853;29;20455;-81
2021/10/03 00:07:58;;;;;;;4.00;3.30;;;23.50;53.50;;;;;;4910841;28;20523;-80
2021/10/03 00:10:28;;;;;;;13.37;3.97;;;23.40;53.50;;;;;;4905157;29;20445;-81
2021/10/03 00:13:02;;;;;;;3.60;3.00;;;23.50;53.50;;;;;;4910597;29;20434;-81
2021/10/03 00:15:31;;;;;;;2.80;2.60;;;23.50;53.70;;;;;;4910988;29;20431;-80
2021/10/03 00:18:00;;;;;;;3.90;3.37;;;23.40;53.80;;;;;;4911034;29;20457;-82
2021/10/03 00:20:30;;;;;;;3.40;3.13;;;23.40;53.80;;;;;;4910459;29;20445;-81
2021/10/03 00:23:02;;;;;;;3.60;3.30;;;23.40;53.80;;;;;;4910825;29;20432;-81
2021/10/03 00:25:31;;;;;;;3.70;3.40;;;23.40;53.90;;;;;;4910817;28;20535;-82
2021/10/03 00:28:00;;;;;;;4.77;3.70;;;23.40;53.90;;;;;;4910790;29;20464;-81
2021/10/03 00:30:29;;;;;;;3.87;3.10;;;23.50;53.90;;;;;;4910391;28;20424;-81
2021/10/03 00:32:57;;;;;;;4.00;3.20;;;23.40;53.80;;;;;;4910980;28;20420;-81
2021/10/03 00:35:27;;;;;;;5.00;2.63;;;23.50;54.10;;;;;;4910720;29;20457;-82
2021/10/03 00:38:02;;;;;;;3.07;2.87;;;23.50;54.10;;;;;;4910732;29;20432;-81
2021/10/03 00:40:34;;;;;;;3.40;3.20;;;23.40;54.10;;;;;;4910140;28;20419;-81
2021/10/03 00:43:05;;;;;;;3.13;2.93;;;23.40;54.10;;;;;;4921632;28;20476;-81
2021/10/03 00:45:37;;;;;;;3.40;3.10;;;23.40;54.00;;;;;;4902406;29;20516;-81
2021/10/03 00:48:06;;;;;;;3.23;3.03;;;23.40;54.10;;;;;;4901909;29;20426;-81
2021/10/03 00:50:35;;;;;;;3.10;2.97;;;23.50;54.20;;;;;;4910176;29;20442;-81
2021/10/03 00:53:05;;;;;;;4.47;3.30;;;23.50;54.30;;;;;;4910568;28;20428;-82
2021/10/03 00:55:34;;;;;;;3.57;3.27;;;23.50;54.30;;;;;;4910672;28;20436;-81
2021/10/03 00:58:02;;;;;;;4.83;3.43;;;23.50;54.40;;;;;;4909939;29;20423;-82
2021/10/03 01:00:32;;;;;;;3.60;3.30;;;23.50;54.40;;;;;;4907372;28;20464;-82
2021/10/03 01:03:00;;;;;;;3.20;3.00;;;23.50;54.40;;;;;;4907763;28;20449;-82
2021/10/03 01:05:29;;;;;;;5.40;3.13;;;23.50;54.40;;;;;;4910294;29;20481;-82
2021/10/03 01:07:58;;;;;;;3.10;2.90;;;23.60;54.40;;;;;;4908910;29;20424;-82
2021/10/03 01:10:29;;;;;;;3.30;3.10;;;23.60;54.40;;;;;;4919679;28;20446;-82
2021/10/03 01:13:04;;;;;;;3.43;3.20;;;23.60;54.40;;;;;;4907596;29;20464;-81
2021/10/03 01:15:33;;;;;;;3.50;2.93;;;23.60;54.40;;;;;;4908312;29;20436;-82
2021/10/03 01:18:03;;;;;;;3.47;3.17;;;23.60;54.40;;;;;;4908412;29;20424;-82
2021/10/03 01:20:34;;;;;;;6.00;3.00;;;23.60;54.30;;;;;;4911049;29;20437;-83
2021/10/03 01:23:05;;;;;;;3.33;3.13;;;23.60;54.30;;;;;;4910886;28;20443;-82
2021/10/03 01:25:41;;;;;;;3.73;3.33;;;23.60;54.30;;;;;;4911842;29;20451;-81
2021/10/03 01:28:12;;;;;;;3.40;3.10;;;23.70;54.30;;;;;;4912658;29;20452;-83
2021/10/03 01:30:42;;;;;;;3.47;3.17;;;23.70;54.40;;;;;;4912445;28;20525;-81
2021/10/03 01:33:12;;;;;;;3.37;3.10;;;23.70;54.40;;;;;;4912375;28;20461;-82
2021/10/03 01:35:42;;;;;;;3.03;2.83;;;23.70;54.40;;;;;;4913262;29;20476;-82
2021/10/03 01:38:14;;;;;;;3.50;3.30;;;23.70;54.40;;;;;;4913015;29;20435;-82
2021/10/03 01:40:48;;;;;;;2.70;2.60;;;23.70;54.40;;;;;;4912714;28;20453;-81
2021/10/03 01:43:17;;;;;;;3.57;3.27;;;23.70;54.40;;;;;;4913371;29;20439;-81
2021/10/03 01:45:48;;;;;;;3.50;3.20;;;23.70;54.40;;;;;;4910963;28;20451;-81
2021/10/03 01:48:38;;;;;;;2.90;2.70;;;23.70;54.50;;;;;;4910445;29;20423;-81
2021/10/03 01:51:08;;;;;;;3.33;3.03;;;23.70;54.50;;;;;;4910457;29;20471;-82
2021/10/03 01:53:40;;;;;;;8.33;3.50;;;23.70;54.60;;;;;;4910239;29;20428;-81
2021/10/03 01:56:09;;;;;;;3.20;2.83;;;23.70;54.60;;;;;;4910526;29;20420;-81
2021/10/03 01:58:39;;;;;;;3.83;3.40;;;23.70;54.80;;;;;;4910099;29;20424;-81
2021/10/03 02:01:13;;;;;;;3.53;3.30;;;23.70;54.90;;;;;;4910123;29;20552;-81
2021/10/03 02:03:42;;;;;;;3.00;2.80;;;23.70;54.70;;;;;;4909905;28;20563;-80
2021/10/03 02:06:11;;;;;;;2.90;2.80;;;23.70;54.90;;;;;;4911145;29;20444;-81
2021/10/03 02:08:41;;;;;;;2.80;2.60;;;23.70;55.00;;;;;;4910082;28;20452;-80
2021/10/03 02:11:10;;;;;;;2.50;2.40;;;23.80;55.10;;;;;;4912226;28;20439;-77
2021/10/03 02:13:41;;;;;;;4.03;2.90;;;23.80;55.20;;;;;;4912580;29;20464;-80
2021/10/03 02:16:10;;;;;;;4.43;3.40;;;23.80;55.20;;;;;;4912530;28;20445;-79
2021/10/03 02:18:41;;;;;;;3.17;2.97;;;23.80;55.20;;;;;;4918295;28;20538;-79
2021/10/03 02:21:09;;;;;;;3.43;3.20;;;23.80;55.30;;;;;;4909360;28;20435;-80
2021/10/03 02:23:38;;;;;;;3.30;2.70;;;23.80;55.40;;;;;;4908941;28;20451;-80
2021/10/03 02:26:09;;;;;;;3.57;3.03;;;23.80;55.40;;;;;;4909622;29;20463;-80
2021/10/03 02:28:37;;;;;;;5.90;3.53;;;23.80;55.40;;;;;;4912091;29;20484;-80
2021/10/03 02:31:07;;;;;;;3.33;3.00;;;23.80;55.60;;;;;;4908215;29;20488;-80
2021/10/03 02:33:36;;;;;;;3.07;2.80;;;23.80;55.50;;;;;;4909074;29;20445;-79
2021/10/03 02:36:05;;;;;;;3.10;2.80;;;23.80;55.80;;;;;;4909123;29;20481;-81
2021/10/03 02:38:34;;;;;;;2.97;2.80;;;23.80;55.80;;;;;;4909277;29;20482;-80
2021/10/03 02:41:03;;;;;;;3.17;2.97;;;23.80;55.80;;;;;;4908422;29;20483;-80
2021/10/03 02:43:34;;;;;;;2.87;2.67;;;23.80;55.90;;;;;;4911663;29;20423;-80
2021/10/03 02:46:03;;;;;;;4.93;2.50;;;23.80;56.00;;;;;;4912088;29;20556;-80
2021/10/03 02:48:34;;;;;;;5.50;2.27;;;23.80;56.10;;;;;;4911695;29;20453;-80
2021/10/03 02:51:02;;;;;;;2.90;2.60;;;23.80;56.10;;;;;;4910669;29;20430;-83
2021/10/03 02:53:32;;;;;;;4.77;2.97;;;23.80;56.20;;;;;;4925652;28;20462;-80
2021/10/03 02:56:00;;;;;;;3.20;3.00;;;23.80;56.30;;;;;;4911925;29;20479;-81
2021/10/03 02:58:29;;;;;;;3.10;2.70;;;23.80;56.40;;;;;;4911747;29;20445;-82
2021/10/03 03:00:59;;;;;;;3.10;2.90;;;23.80;56.30;;;;;;4911536;29;20461;-81
2021/10/03 03:03:30;;;;;;;2.63;2.53;;;23.80;56.40;;;;;;4911431;28;20428;-81
2021/10/03 03:05:58;;;;;;;2.93;2.73;;;23.80;56.40;;;;;;4911790;28;20428;-81
2021/10/03 03:08:26;;;;;;;3.37;2.93;;;23.80;56.50;;;;;;4911854;29;20498;-81
2021/10/03 03:10:54;;;;;;;2.77;2.60;;;23.80;56.50;;;;;;4911739;28;20449;-81
2021/10/03 03:13:22;;;;;;;2.63;2.43;;;23.80;56.60;;;;;;4911608;29;20463;-81
2021/10/03 03:15:51;;;;;;;3.33;2.77;;;23.80;56.50;;;;;;4911434;29;20427;-81
2021/10/03 03:18:21;;;;;;;2.70;2.50;;;23.90;56.60;;;;;;4911573;28;20472;-80
2021/10/03 03:20:49;;;;;;;3.00;2.17;;;23.80;56.60;;;;;;4911232;29;20420;-80
2021/10/03 03:23:17;;;;;;;2.93;2.37;;;23.80;56.70;;;;;;4911506;29;20510;-80
2021/10/03 03:25:46;;;;;;;2.70;2.50;;;23.80;56.80;;;;;;4911220;28;20487;-81
2021/10/03 03:28:14;;;;;;;2.23;2.00;;;23.90;56.90;;;;;;4910921;28;20555;-80
2021/10/03 03:30:42;;;;;;;2.50;2.23;;;23.90;56.80;;;;;;4917451;28;20454;-81
2021/10/03 03:33:11;;;;;;;2.23;2.13;;;23.90;56.90;;;;;;4910994;29;20416;-81
2021/10/03 03:35:41;;;;;;;3.70;2.43;;;23.90;57.00;;;;;;4911389;29;20453;-80
2021/10/03 03:38:09;;;;;;;2.57;2.47;;;23.90;57.00;;;;;;4911052;28;20476;-81
2021/10/03 03:40:37;;;;;;;2.90;2.70;;;23.80;57.10;;;;;;4910703;29;20457;-80
2021/10/03 03:43:06;;;;;;;2.50;2.30;;;23.90;57.20;;;;;;4911041;29;20514;-81
2021/10/03 03:45:35;;;;;;;2.90;2.70;;;23.90;57.20;;;;;;4912021;29;20531;-80
2021/10/03 03:48:03;;;;;;;2.60;2.50;;;23.90;57.30;;;;;;4911246;29;20870;-83
2021/10/03 03:50:32;;;;;;;2.40;2.30;;;23.80;57.20;;;;;;4910580;29;20464;-81
2021/10/03 03:53:02;;;;;;;3.60;2.90;;;23.80;57.30;;;;;;4910979;28;20482;-82
2021/10/03 03:55:30;;;;;;;2.60;2.50;;;23.90;57.30;;;;;;4910988;29;20424;-81
2021/10/03 03:57:59;;;;;;;2.70;2.50;;;23.80;57.20;;;;;;4911024;29;20453;-81
2021/10/03 04:00:27;;;;;;;3.10;2.90;;;23.80;57.20;;;;;;4910049;28;20476;-85
2021/10/03 04:02:56;;;;;;;2.30;2.10;;;23.80;57.30;;;;;;4909345;29;20462;-85
2021/10/03 04:05:24;;;;;;;2.33;2.20;;;23.80;57.30;;;;;;4917935;28;20427;-84
2021/10/03 04:07:54;;;;;;;2.70;2.50;;;23.90;57.40;;;;;;4927675;28;20554;-85
2021/10/03 04:10:24;;;;;;;2.70;2.60;;;23.90;57.40;;;;;;4943937;28;20511;-85
2021/10/03 04:12:52;;;;;;;2.77;2.57;;;23.80;57.40;;;;;;4911228;29;20454;-83
2021/10/03 04:15:21;;;;;;;5.57;2.27;;;23.90;57.40;;;;;;4910544;29;20408;-85
2021/10/03 04:17:49;;;;;;;2.40;2.30;;;23.80;57.40;;;;;;4910987;28;20523;-85
2021/10/03 04:20:17;;;;;;;2.60;2.40;;;23.80;57.30;;;;;;4910621;29;20467;-84
2021/10/03 04:22:46;;;;;;;2.73;2.53;;;23.80;57.40;;;;;;4911013;28;20463;-84
2021/10/03 04:25:14;;;;;;;2.50;2.40;;;23.90;57.30;;;;;;4911021;28;20427;-84
2021/10/03 04:27:44;;;;;;;2.73;2.57;;;23.90;57.40;;;;;;4910221;29;20481;-85
2021/10/03 04:30:13;;;;;;;2.87;2.37;;;23.90;57.40;;;;;;4910576;29;20412;-84
2021/10/03 04:32:41;;;;;;;2.60;2.50;;;23.90;57.40;;;;;;4910416;28;20423;-85
2021/10/03 04:35:09;;;;;;;2.53;2.33;;;23.90;57.30;;;;;;4910539;28;20435;-84
2021/10/03 04:37:38;;;;;;;2.90;2.70;;;23.90;57.40;;;;;;4910367;28;20452;-85
2021/10/03 04:40:07;;;;;;;2.27;2.17;;;23.90;57.40;;;;;;4910428;29;20506;-84
2021/10/03 04:42:38;;;;;;;2.60;2.50;;;23.90;57.40;;;;;;4910884;28;20468;-84
2021/10/03 04:45:10;;;;;;;2.43;2.33;;;23.90;57.30;;;;;;4910656;29;20505;-83
2021/10/03 04:47:38;;;;;;;2.57;2.47;;;23.90;57.30;;;;;;4909995;29;20461;-84
2021/10/03 04:50:07;;;;;;;2.30;2.07;;;23.90;57.30;;;;;;4910254;28;20449;-84
2021/10/03 04:52:36;;;;;;;3.00;2.30;;;23.90;57.30;;;;;;4909314;28;20445;-85
2021/10/03 04:55:05;;;;;;;2.23;2.13;;;23.90;57.40;;;;;;4910445;28;20431;-84
2021/10/03 04:57:34;;;;;;;2.80;2.50;;;23.90;57.40;;;;;;4910224;29;20557;-84
2021/10/03 05:00:08;;;;;;;2.30;2.20;;;23.90;57.40;;;;;;4909802;29;20465;-85
2021/10/03 05:02:37;;;;;;;2.40;2.30;;;23.90;57.30;;;;;;4908036;29;20542;-85
2021/10/03 05:05:06;;;;;;;2.63;2.50;;;23.90;57.40;;;;;;4923088;28;20448;-84
2021/10/03 05:07:34;;;;;;;2.30;2.20;;;23.90;57.50;;;;;;4967693;28;20446;-85
2021/10/03 05:10:03;;;;;;;2.30;2.20;;;23.90;57.30;;;;;;5008817;28;20422;-85
2021/10/03 05:12:33;;;;;;;2.70;2.33;;;23.90;57.40;;;;;;5008191;28;20456;-85
2021/10/03 05:15:01;;;;;;;2.43;2.33;;;23.90;57.30;;;;;;5008566;28;20505;-85
2021/10/03 05:17:31;;;;;;;2.83;2.63;;;23.90;57.30;;;;;;5008508;28;20505;-83
2021/10/03 05:20:00;;;;;;;2.43;2.00;;;23.90;57.30;;;;;;5008940;28;20426;-85
2021/10/03 05:22:28;;;;;;;1.97;1.87;;;23.90;57.40;;;;;;5008879;28;20418;-84
2021/10/03 05:24:57;;;;;;;2.37;2.27;;;23.90;57.30;;;;;;5008504;28;20426;-84
2021/10/03 05:27:25;;;;;;;2.57;2.40;;;23.90;57.20;;;;;;5008712;28;20446;-84
2021/10/03 05:29:53;;;;;;;1.93;1.83;;;23.90;57.20;;;;;;5008140;28;20536;-84
2021/10/03 05:32:22;;;;;;;2.47;2.37;;;23.90;57.30;;;;;;5007053;28;20506;-83
2021/10/03 05:34:54;;;;;;;2.20;2.10;;;23.90;57.20;;;;;;5007713;28;20534;-84
2021/10/03 05:37:23;;;;;;;2.23;2.13;;;23.90;57.20;;;;;;5008149;28;20490;-84
2021/10/03 05:39:51;;;;;;;2.53;2.33;;;23.90;57.20;;;;;;5007764;28;20431;-84
2021/10/03 05:42:20;;;;;;;2.70;2.50;;;24.00;57.30;;;;;;5007783;28;20539;-84
2021/10/03 05:44:48;;;;;;;3.00;2.40;;;23.90;57.10;;;;;;5007864;28;20435;-84
2021/10/03 05:47:16;;;;;;;2.70;2.30;;;23.90;57.10;;;;;;5007964;28;20452;-84
2021/10/03 05:49:50;;;;;;;2.57;2.47;;;24.00;57.10;;;;;;5008762;28;20423;-85
2021/10/03 05:52:20;;;;;;;2.30;2.20;;;23.90;57.10;;;;;;5008779;28;20440;-84
2021/10/03 05:54:50;;;;;;;2.60;2.37;;;24.00;57.10;;;;;;5008854;28;20449;-85
2021/10/03 05:57:19;;;;;;;3.23;2.47;;;23.90;57.10;;;;;;5008529;28;20437;-85
2021/10/03 05:59:47;;;;;;;3.47;2.90;;;24.00;57.10;;;;;;5008826;28;20440;-85
2021/10/03 06:02:15;;;;;;;3.13;2.83;;;24.00;57.10;;;;;;5008663;28;20485;-84
2021/10/03 06:04:44;;;;;;;3.23;2.53;;;24.00;57.00;;;;;;4975127;28;20441;-86
2021/10/03 06:07:13;;;;;;;2.40;2.30;;;24.00;57.00;;;;;;4913145;28;20505;-85
2021/10/03 06:09:44;;;;;;;2.83;2.63;;;24.00;56.90;;;;;;4912534;28;20484;-86
2021/10/03 06:12:13;;;;;;;3.43;2.80;;;24.00;57.00;;;;;;4912473;29;20438;-85
2021/10/03 06:14:41;;;;;;;2.93;2.73;;;24.00;57.00;;;;;;4912565;28;20489;-85
2021/10/03 06:17:10;;;;;;;2.80;2.60;;;24.00;57.50;;;;;;4912509;28;20442;-84
2021/10/03 06:19:38;;;;;;;2.50;2.40;;;24.10;56.80;;;;;;4913125;28;20503;-85
2021/10/03 06:22:07;;;;;;;3.30;2.97;;;24.10;56.80;;;;;;4912199;28;20426;-85
2021/10/03 06:24:36;;;;;;;2.90;2.70;;;24.10;56.70;;;;;;4911492;29;20504;-85
2021/10/03 06:27:06;;;;;;;2.70;2.60;;;24.10;56.70;;;;;;4911527;29;20470;-86
2021/10/03 06:29:34;;;;;;;3.37;2.53;;;24.10;56.60;;;;;;4913473;29;20443;-86
2021/10/03 06:32:04;;;;;;;2.53;2.40;;;24.10;57.00;;;;;;4912955;29;20449;-83
2021/10/03 06:34:33;;;;;;;3.00;2.80;;;24.10;56.60;;;;;;4912877;28;20458;-83
2021/10/03 06:37:01;;;;;;;4.10;2.40;;;24.10;56.60;;;;;;4912934;29;20428;-85
2021/10/03 06:39:30;;;;;;;2.80;2.60;;;24.20;56.60;;;;;;4912785;29;20504;-84
2021/10/03 06:41:58;;;;;;;2.93;2.70;;;24.20;56.60;;;;;;4912562;28;20456;-84
2021/10/03 06:44:27;;;;;;;3.83;2.73;;;24.20;56.60;;;;;;4912520;29;20460;-83
2021/10/03 06:46:56;;;;;;;2.97;2.87;;;24.10;56.50;;;;;;4912411;29;20455;-84
2021/10/03 06:49:50;;;;;;;2.70;2.50;;;24.10;56.50;;;;;;4911757;29;20456;-84
2021/10/03 06:52:19;;;;;;;3.83;2.70;;;24.20;56.60;;;;;;4912254;28;20412;-84
2021/10/03 06:54:51;;;;;;;3.53;3.23;;;24.20;56.60;;;;;;4911677;28;20464;-83
2021/10/03 06:57:19;;;;;;;6.40;3.10;;;24.20;56.40;;;;;;4911844;28;20453;-84
2021/10/03 06:59:52;;;;;;;3.50;3.30;;;24.30;56.40;;;;;;4911767;28;20411;-83
2021/10/03 07:02:31;;;;;;;3.23;3.03;;;24.30;56.40;;;;;;4911666;29;20456;-83
2021/10/03 07:05:11;;;;;;;5.90;2.90;;;24.30;56.40;;;;;;4911343;29;20449;-83
2021/10/03 07:07:45;;;;;;;9.00;3.00;;;24.30;56.30;;;;;;4911416;28;20460;-83
2021/10/03 07:10:21;;;;;;;3.27;3.07;;;24.30;56.30;;;;;;4911201;29;20417;-83
2021/10/03 07:12:51;;;;;;;3.53;3.13;;;24.30;56.30;;;;;;4911166;29;20457;-84
2021/10/03 07:15:21;;;;;;;4.00;3.67;;;24.30;56.30;;;;;;4911064;29;20432;-84
2021/10/03 07:17:58;;;;;;;3.47;3.27;;;24.30;56.20;;;;;;4910992;28;20817;-84
2021/10/03 07:20:27;;;;;;;5.97;2.70;;;24.30;56.20;;;;;;4911501;29;20434;-77
2021/10/03 07:22:55;;;;;;;3.00;2.90;;;24.30;56.80;;;;;;4911645;29;20464;-77
2021/10/03 07:25:23;;;;;;;3.60;3.30;;;24.30;56.30;;;;;;4911222;29;20485;-77
2021/10/03 07:27:53;;;;;;;5.47;3.50;;;24.30;56.10;;;;;;4911130;29;20437;-77
2021/10/03 07:30:38;;;;;;;3.40;2.93;;;24.30;56.10;;;;;;4910597;29;20452;-78
2021/10/03 07:33:20;;;;;;;4.10;3.80;;;24.40;56.20;;;;;;4912617;29;20519;-77
2021/10/03 07:36:11;;;;;;;3.97;3.70;;;24.40;56.10;;;;;;4910985;29;20463;-79
2021/10/03 07:38:49;;;;;;;3.70;3.40;;;24.40;56.10;;;;;;4911577;29;20485;-76
2021/10/03 07:41:22;;;;;;;9.00;3.57;;;24.40;56.10;;;;;;4911399;29;20462;-77
2021/10/03 07:43:54;;;;;;;4.07;3.67;;;24.40;56.10;;;;;;4911242;29;20449;-78
2021/10/03 07:46:38;;;;;;;3.70;3.40;;;24.40;56.00;;;;;;4911078;29;20404;-77
2021/10/03 07:49:06;;;;;;;4.00;3.73;;;24.40;56.20;;;;;;4911250;29;20440;-78
2021/10/03 07:51:36;;;;;;;4.90;4.03;;;24.40;56.20;;;;;;4910915;29;20452;-78
2021/10/03 07:54:08;;;;;;;4.37;4.07;;;24.40;56.20;;;;;;4911266;28;20432;-78
2021/10/03 07:56:41;;;;;;;4.27;3.93;;;24.40;56.20;;;;;;4911375;29;20489;-78
2021/10/03 07:59:10;;;;;;;4.17;3.87;;;24.40;56.30;;;;;;4911613;29;20423;-78
2021/10/03 08:01:45;;;;;;;3.80;3.50;;;24.40;56.20;;;;;;4911370;29;20435;-77
2021/10/03 08:04:18;;;;;;;5.60;3.97;;;24.40;56.30;;;;;;4908264;28;20432;-78
2021/10/03 08:06:46;;;;;;;5.13;4.57;;;24.40;56.40;;;;;;4892338;29;20450;-76
2021/10/03 08:09:14;;;;;;;6.20;5.20;;;23.50;58.20;;;;;;4892079;29;20474;-78
2021/10/03 08:11:42;;;;;;;5.50;5.00;;;22.90;61.00;;;;;;4891606;28;20428;-75
2021/10/03 08:14:10;;;;;;;8.40;4.80;;;22.40;63.40;;;;;;4891220;29;20550;-75
2021/10/03 08:16:40;;;;;;;7.80;5.40;;;22.80;63.20;;;;;;4891446;29;20508;-75
2021/10/03 08:19:09;;;;;;;5.87;5.10;;;23.00;63.10;;;;;;4891571;28;20420;-75
2021/10/03 08:21:37;;;;;;;5.47;4.90;;;23.30;62.30;;;;;;4890548;29;20489;-75
2021/10/03 08:24:05;;;;;;;6.00;4.63;;;23.40;62.50;;;;;;4891202;29;20446;-74
2021/10/03 08:26:35;;;;;;;6.00;5.20;;;23.40;62.00;;;;;;4890955;29;20445;-75
2021/10/03 08:29:03;;;;;;;6.40;5.20;;;23.40;62.30;;;;;;4891046;29;20478;-75
2021/10/03 08:31:32;;;;;;;5.50;5.00;;;23.50;62.70;;;;;;4894324;29;20439;-74
2021/10/03 08:34:00;;;;;;;5.10;4.70;;;23.70;61.90;;;;;;4909367;29;20515;-75
2021/10/03 08:36:30;;;;;;;5.40;5.00;;;23.70;61.50;;;;;;4909331;29;20459;-75
2021/10/03 08:39:00;;;;;;;6.60;4.87;;;23.60;62.30;;;;;;4909398;29;20485;-75
2021/10/03 08:41:28;;;;;;;5.57;5.07;;;23.50;62.70;;;;;;4909728;29;20424;-75
2021/10/03 08:43:56;;;;;;;5.60;5.00;;;23.70;62.40;;;;;;4910202;29;20416;-75
2021/10/03 08:46:25;;;;;;;5.30;4.90;;;23.80;62.00;;;;;;4910196;29;20499;-74
2021/10/03 08:48:53;;;;;;;9.70;4.93;;;23.90;62.20;;;;;;4910324;29;20423;-74
2021/10/03 08:51:21;;;;;;;5.53;5.13;;;23.90;61.80;;;;;;4910049;29;20455;-74
2021/10/03 08:53:51;;;;;;;6.23;5.30;;;24.00;62.20;;;;;;4908683;29;20495;-74
2021/10/03 08:56:21;;;;;;;6.03;5.53;;;23.90;62.10;;;;;;4910481;29;20415;-75
2021/10/03 08:58:52;;;;;;;6.17;5.30;;;23.90;62.60;;;;;;4910074;29;20431;-76
2021/10/03 09:01:21;;;;;;;7.93;5.20;;;24.00;62.10;;;;;;4909458;29;20536;-76
2021/10/03 09:03:50;;;;;;;6.53;5.83;;;24.10;62.30;;;;;;4909613;29;20470;-75
2021/10/03 09:06:20;;;;;;;7.10;5.07;;;24.20;61.30;;;;;;4891062;29;20524;-75
2021/10/03 09:08:52;;;;;;;11.40;5.70;;;23.90;61.90;;;;;;4891310;28;20465;-75
2021/10/03 09:11:24;;;;;;;9.27;5.27;;;23.90;62.50;;;;;;4890965;29;20448;-75
2021/10/03 09:13:53;;;;;;;6.10;5.50;;;24.10;62.70;;;;;;4891356;28;20425;-75
2021/10/03 09:16:24;;;;;;;8.17;5.67;;;24.20;63.30;;;;;;4890954;29;20480;-74
2021/10/03 09:18:54;;;;;;;7.53;6.17;;;24.10;62.30;;;;;;4891127;28;20449;-75
2021/10/03 09:21:38;;;;;;;16.80;6.00;;;23.80;62.70;;;;;;4919549;28;20408;-75
2021/10/03 09:24:07;;;;;;;9.07;5.60;;;23.80;63.60;;;;;;4967679;28;20478;-75
2021/10/03 09:26:38;;;;;;;13.20;5.43;;;23.80;63.50;;;;;;5009013;28;20487;-75
2021/10/03 09:29:23;;;;;;;6.07;5.57;;;23.80;63.30;;;;;;5009037;28;20403;-75
2021/10/03 09:32:14;;;;;;;7.77;5.67;;;23.90;63.20;;;;;;5008522;28;20411;-76
2021/10/03 09:34:45;;;;;;;7.30;5.40;;;24.00;63.90;;;;;;5008761;28;20422;-75
2021/10/03 09:37:23;;;;;;;7.63;5.40;;;24.30;63.50;;;;;;4994889;28;20408;-79
2021/10/03 09:39:51;;;;;;;11.67;5.40;;;24.60;62.20;;;;;;4915017;28;20478;-75
2021/10/03 09:42:23;;;;;;;15.37;6.07;;;24.70;61.80;;;;;;4912449;29;20443;-83
2021/10/03 09:45:10;;;;;;;10.43;5.57;;;25.00;61.70;;;;;;4957358;28;20420;-81
2021/10/03 09:47:39;;;;;;;10.20;5.83;;;25.20;60.70;;;;;;4940865;28;20395;-81
2021/10/03 09:50:11;;;;;;;10.17;5.97;;;25.30;60.50;;;;;;5012620;28;20483;-83
2021/10/03 09:52:39;;;;;;;7.20;5.77;;;25.50;60.50;;;;;;5012608;28;20432;-82
2021/10/03 09:55:13;;;;;;;7.30;5.20;;;25.60;60.30;;;;;;4982949;28;20492;-82
2021/10/03 09:57:45;;;;;;;16.63;5.30;;;25.70;59.90;;;;;;4922848;28;20447;-81
2021/10/03 10:00:14;;;;;;;13.47;4.83;;;25.80;59.80;;;;;;4908731;29;20515;-84
2021/10/03 10:02:44;;;;;;;7.60;4.90;;;25.80;59.60;;;;;;4908607;29;20503;-81
2021/10/03 10:05:24;;;;;;;7.10;5.30;;;25.90;59.40;;;;;;4908587;28;20448;-83
2021/10/03 10:07:56;;;;;;;6.93;5.20;;;25.90;59.20;;;;;;4908382;29;20431;-84
2021/10/03 10:10:27;;;;;;;16.33;5.10;;;26.00;59.20;;;;;;4907718;28;20476;-80
2021/10/03 10:13:03;;;;;;;9.80;5.00;;;26.00;59.20;;;;;;4910203;29;20411;-82
2021/10/03 10:15:31;;;;;;;5.17;4.67;;;26.00;59.70;;;;;;4912515;28;20459;-80
2021/10/03 10:17:59;;;;;;;6.10;5.47;;;26.00;59.00;;;;;;4911792;28;20503;-82
2021/10/03 10:20:34;;;;;;;10.93;4.80;;;26.00;59.00;;;;;;4911525;29;20435;-79
2021/10/03 10:23:03;;;;;;;6.30;5.00;;;26.10;58.80;;;;;;4911443;29;20459;-82
2021/10/03 10:25:39;;;;;;;7.10;4.77;;;26.10;58.90;;;;;;4911977;28;20457;-79
2021/10/03 10:28:11;;;;;;;7.37;4.90;;;26.10;58.80;;;;;;4911831;29;20479;-80
2021/10/03 10:31:06;;;;;;;6.17;5.03;;;26.10;58.80;;;;;;4907882;29;20568;-80
2021/10/03 10:34:07;;;;;;;10.80;5.40;;;26.10;58.70;;;;;;4913356;28;20426;-81
2021/10/03 10:36:52;;;;;;;8.07;4.97;;;26.10;58.80;;;;;;4912212;29;20433;-81
2021/10/03 10:39:22;;;;;;;11.37;5.43;;;26.10;58.60;;;;;;4912452;29;20456;-80
2021/10/03 10:41:50;;;;;;;6.53;4.40;;;26.10;58.70;;;;;;4911500;29;20451;-80
2021/10/03 10:44:40;;;;;;;10.00;5.10;;;26.10;58.90;;;;;;4912082;29;20423;-81
2021/10/03 10:47:10;;;;;;;6.50;4.73;;;26.20;58.60;;;;;;4912304;28;20415;-82
2021/10/03 10:49:39;;;;;;;8.93;4.93;;;26.20;58.60;;;;;;4911353;28;20445;-81
2021/10/03 10:52:36;;;;;;;10.03;5.00;;;26.20;58.70;;;;;;4911429;29;20472;-79
2021/10/03 10:55:24;;;;;;;11.33;4.50;;;26.20;58.50;;;;;;4909628;28;20444;-80
2021/10/03 10:58:17;;;;;;;10.13;5.07;;;26.20;59.00;;;;;;4912515;29;20469;-79
2021/10/03 11:00:58;;;;;;;7.30;5.00;;;26.20;59.00;;;;;;4912021;29;20427;-81
2021/10/03 11:04:03;;;;;;;8.00;4.60;;;26.20;59.00;;;;;;4911688;28;20416;-79
2021/10/03 11:07:04;;;;;;;8.47;4.90;;;26.20;58.70;;;;;;4892308;29;20416;-80
2021/10/03 11:09:34;;;;;;;7.70;5.00;;;26.20;59.10;;;;;;4892107;29;20437;-82
2021/10/03 11:12:09;;;;;;;8.07;5.07;;;26.20;59.00;;;;;;4891398;29;20482;-80
2021/10/03 11:14:38;;;;;;;20.07;5.50;;;26.20;58.90;;;;;;4891958;29;20494;-80
2021/10/03 11:20:30;;;;;;;5.43;4.90;;;26.20;58.70;;;;;;4933775;29;20439;-81
2021/10/03 11:22:58;;;;;;;7.40;5.00;;;26.20;58.80;;;;;;4892838;29;20449;-79
2021/10/03 11:25:29;;;;;;;5.43;4.40;;;26.20;58.70;;;;;;4892480;29;20420;-82
2021/10/03 11:27:57;;;;;;;7.87;4.77;;;26.20;58.70;;;;;;4892144;29;20434;-78
2021/10/03 11:30:25;;;;;;;7.47;4.80;;;26.20;58.80;;;;;;4900519;29;20412;-79
2021/10/03 11:32:53;;;;;;;5.83;4.80;;;26.20;58.80;;;;;;4909385;28;20459;-79
2021/10/03 11:35:22;;;;;;;23.63;5.07;;;26.20;58.60;;;;;;4908776;29;20462;-80
2021/10/03 11:37:52;;;;;;;11.23;5.30;;;26.20;59.00;;;;;;4909780;29;20432;-79
2021/10/03 11:40:21;;;;;;;8.67;4.80;;;26.20;59.10;;;;;;4909879;29;20448;-79
2021/10/03 11:42:50;;;;;;;7.03;4.80;;;26.30;59.00;;;;;;4909916;29;20453;-84
2021/10/03 11:45:20;;;;;;;12.87;5.03;;;26.30;59.00;;;;;;4910121;29;20453;-84
2021/10/03 11:47:49;;;;;;;5.60;4.97;;;26.30;58.70;;;;;;4910893;29;20431;-79
2021/10/03 11:50:21;;;;;;;6.77;4.40;;;26.30;58.60;;;;;;4910489;29;20466;-81
2021/10/03 11:52:51;;;;;;;7.53;4.83;;;26.30;58.50;;;;;;4910570;29;20407;-81
2021/10/03 11:55:20;;;;;;;5.70;4.60;;;26.30;58.50;;;;;;4910924;28;20453;-81
2021/10/03 11:57:49;;;;;;;5.27;4.87;;;26.30;58.50;;;;;;4911344;29;20434;-77
2021/10/03 12:00:21;;;;;;;5.27;4.57;;;26.40;58.50;;;;;;4910798;29;20449;-80
2021/10/03 12:02:50;;;;;;;8.30;4.00;;;26.40;58.50;;;;;;4910289;28;20480;-80
2021/10/03 12:05:21;;;;;;;7.93;4.80;;;26.30;58.60;;;;;;4911078;28;20464;-80
2021/10/03 12:08:02;;;;;;;7.77;5.50;;;26.30;58.40;;;;;;4910338;29;20438;-79
2021/10/03 12:10:41;;;;;;;11.73;4.83;;;26.40;58.70;;;;;;4909806;29;20481;-79
2021/10/03 12:13:15;;;;;;;9.47;4.93;;;26.40;58.80;;;;;;4911065;29;20396;-79
2021/10/03 12:15:45;;;;;;;6.43;4.43;;;26.40;59.30;;;;;;4910542;29;20412;-81
2021/10/03 12:18:14;;;;;;;8.20;5.17;;;26.40;59.10;;;;;;4910008;29;20522;-81
2021/10/03 12:20:56;;;;;;;8.17;4.77;;;26.40;59.50;;;;;;4910208;29;20423;-80
2021/10/03 12:23:51;;;;;;;13.23;5.27;;;26.50;59.40;;;;;;4909771;29;20505;-81
2021/10/03 12:26:21;;;;;;;6.53;4.90;;;26.40;59.00;;;;;;4909790;28;20448;-78
2021/10/03 12:29:10;;;;;;;12.63;4.97;;;26.30;58.50;;;;;;4907176;28;20451;-79
2021/10/03 12:31:58;;;;;;;22.97;4.93;;;26.20;58.60;;;;;;4912625;28;20480;-80
2021/10/03 12:34:43;;;;;;;16.07;5.20;;;26.20;58.50;;;;;;4913092;28;20442;-80
2021/10/03 12:37:33;;;;;;;6.30;4.83;;;26.20;58.50;;;;;;4909688;29;20503;-91
2021/10/03 12:40:08;;;;;;;5.10;4.60;;;26.10;58.60;;;;;;4909898;28;20423;-87
2021/10/03 12:42:40;;;;;;;5.63;5.13;;;26.00;58.90;;;;;;4910397;28;20427;-81
2021/10/03 12:45:09;;;;;;;7.27;5.30;;;25.90;59.10;;;;;;4908367;29;20506;-77
2021/10/03 12:47:40;;;;;;;6.13;4.00;;;25.80;59.40;;;;;;4912672;28;20522;-77
2021/10/03 12:50:09;;;;;;;6.47;4.50;;;25.80;59.60;;;;;;4891616;28;20430;-77
2021/10/03 12:52:37;;;;;;;6.60;4.50;;;25.70;59.70;;;;;;4891384;29;20473;-77
2021/10/03 12:55:08;;;;;;;9.83;5.07;;;25.70;59.80;;;;;;4895963;29;20454;-76
2021/10/03 12:57:36;;;;;;;5.77;5.10;;;25.60;60.00;;;;;;4891520;29;20432;-76
2021/10/03 13:00:05;;;;;;;5.47;4.80;;;25.60;60.10;;;;;;4894852;29;20455;-76
2021/10/03 13:02:34;;;;;;;5.07;4.57;;;25.50;60.30;;;;;;4904929;28;20460;-77
2021/10/03 13:05:07;;;;;;;8.47;4.97;;;25.50;60.40;;;;;;4909872;29;20453;-76
2021/10/03 13:07:35;;;;;;;8.40;5.03;;;25.40;60.50;;;;;;4909768;29;20441;-80
2021/10/03 13:10:04;;;;;;;6.10;4.67;;;25.40;60.70;;;;;;4908468;28;20490;-77